sensor_id;sensor_type;location;lat;lon;timestamp;pressure;altitude;pressure_sealevel;temperature;humidity
14232;BME280;7200;52.194;9.900;2023-10-13T00:01:41;100459.25;;;17.01;100.00
14232;BME280;7200;52.194;9.900;2023-10-13T00:04:06;100458.09;;;16.91;100.00
14232;BME280;7200;52.194;9.900;2023-10-13T00:06:33;100461.66;;;16.91;100.00
14232;BME280;7200;52.194;9.900;2023-10-13T00:08:58;100459.84;;;16.92;100.00
14232;BME280;7200;52.194;9.900;2023-10-13T00:11:24;100472.28;;;17.06;100.00
14232;BME280;7200;52.194;9.900;2023-10-13T00:13:52;100473.78;;;17.10;100.00
14232;BME280;7200;52.194;9.900;2023-10-13T00:16:18;100467.63;;;17.09;100.00
14232;BME280;7200;52.194;9.900;2023-10-13T00:18:48;100461.22;;;17.12;100.00
14232;BME280;7200;52.194;9.900;2023-10-13T00:21:16;100465.22;;;17.19;100.00
14232;BME280;7200;52.194;9.900;2023-10-13T00:23:56;100466.28;;;17.17;100.00
14232;BME280;7200;52.194;9.900;2023-10-13T00:26:22;100459.41;;;17.27;100.00
14232;BME280;7200;52.194;9.900;2023-10-13T00:28:57;100446.19;;;17.11;100.00
14232;BME280;7200;52.194;9.900;2023-10-13T00:31:33;100452.28;;;17.27;100.00
14232;BME280;7200;52.194;9.900;2023-10-13T00:34:04;100459.03;;;17.33;100.00
14232;BME280;7200;52.194;9.900;2023-10-13T00:36:36;100449.97;;;17.36;100.00
14232;BME280;7200;52.194;9.900;2023-10-13T00:39:01;100438.94;;;17.27;100.00
14232;BME280;7200;52.194;9.900;2023-10-13T00:41:29;100435.22;;;17.30;100.00
14232;BME280;7200;52.194;9.900;2023-10-13T00:44:15;100438.72;;;17.30;100.00
14232;BME280;7200;52.194;9.900;2023-10-13T00:46:43;100427.22;;;17.30;100.00
14232;BME280;7200;52.194;9.900;2023-10-13T00:49:10;100410.16;;;17.32;100.00
14232;BME280;7200;52.194;9.900;2023-10-13T00:51:41;100417.34;;;17.45;100.00
14232;BME280;7200;52.194;9.900;2023-10-13T00:54:12;100402.81;;;17.36;100.00
14232;BME280;7200;52.194;9.900;2023-10-13T00:56:39;100402.88;;;17.49;100.00
14232;BME280;7200;52.194;9.900;2023-10-13T00:59:34;100395.47;;;17.40;100.00
14232;BME280;7200;52.194;9.900;2023-10-13T01:02:01;100389.97;;;17.28;100.00
14232;BME280;7200;52.194;9.900;2023-10-13T01:04:46;100389.63;;;17.20;100.00
14232;BME280;7200;52.194;9.900;2023-10-13T01:07:12;100379.66;;;17.09;100.00
14232;BME280;7200;52.194;9.900;2023-10-13T01:09:41;100382.88;;;17.15;100.00
14232;BME280;7200;52.194;9.900;2023-10-13T01:12:12;100387.31;;;17.28;100.00
14232;BME280;7200;52.194;9.900;2023-10-13T01:14:37;100390.81;;;17.29;100.00
14232;BME280;7200;52.194;9.900;2023-10-13T01:17:03;100385.25;;;17.19;100.00
14232;BME280;7200;52.194;9.900;2023-10-13T01:19:29;100380.13;;;17.16;100.00
14232;BME280;7200;52.194;9.900;2023-10-13T01:21:55;100392.72;;;17.27;100.00
14232;BME280;7200;52.194;9.900;2023-10-13T01:24:32;100390.28;;;17.24;100.00
14232;BME280;7200;52.194;9.900;2023-10-13T01:27:00;100375.22;;;17.23;100.00
14232;BME280;7200;52.194;9.900;2023-10-13T01:29:35;100372.97;;;17.17;100.00
14232;BME280;7200;52.194;9.900;2023-10-13T01:32:01;100364.63;;;17.08;100.00
14232;BME280;7200;52.194;9.900;2023-10-13T01:34:26;100370.88;;;17.22;100.00
14232;BME280;7200;52.194;9.900;2023-10-13T01:36:52;100377.81;;;17.24;100.00
14232;BME280;7200;52.194;9.900;2023-10-13T01:39:20;100370.41;;;17.15;100.00
14232;BME280;7200;52.194;9.900;2023-10-13T01:41:45;100364.13;;;17.16;100.00
14232;BME280;7200;52.194;9.900;2023-10-13T01:44:11;100360.81;;;17.12;100.00
14232;BME280;7200;52.194;9.900;2023-10-13T01:46:42;100351.84;;;17.13;100.00
14232;BME280;7200;52.194;9.900;2023-10-13T01:49:07;100362.41;;;17.15;100.00
14232;BME280;7200;52.194;9.900;2023-10-13T01:51:33;100350.03;;;17.14;100.00
14232;BME280;7200;52.194;9.900;2023-10-13T01:53:58;100351.84;;;17.13;100.00
14232;BME280;7200;52.194;9.900;2023-10-13T01:56:28;100356.13;;;17.16;100.00
14232;BME280;7200;52.194;9.900;2023-10-13T01:58:55;100357.91;;;17.16;100.00
14232;BME280;7200;52.194;9.900;2023-10-13T02:01:20;100369.91;;;17.23;100.00
14232;BME280;7200;52.194;9.900;2023-10-13T02:03:53;100371.81;;;17.21;100.00
14232;BME280;7200;52.194;9.900;2023-10-13T02:06:27;100364.56;;;17.23;100.00
14232;BME280;7200;52.194;9.900;2023-10-13T02:08:58;100366.56;;;17.19;100.00
14232;BME280;7200;52.194;9.900;2023-10-13T02:11:28;100364.22;;;17.15;100.00
14232;BME280;7200;52.194;9.900;2023-10-13T02:13:55;100362.31;;;17.17;100.00
14232;BME280;7200;52.194;9.900;2023-10-13T02:16:22;100371.72;;;17.22;100.00
14232;BME280;7200;52.194;9.900;2023-10-13T02:18:47;100370.66;;;17.25;100.00
14232;BME280;7200;52.194;9.900;2023-10-13T02:21:17;100362.91;;;17.35;100.00
14232;BME280;7200;52.194;9.900;2023-10-13T02:23:42;100359.47;;;17.32;100.00
14232;BME280;7200;52.194;9.900;2023-10-13T02:26:14;100350.97;;;17.40;100.00
14232;BME280;7200;52.194;9.900;2023-10-13T02:28:56;100350.63;;;17.32;100.00
14232;BME280;7200;52.194;9.900;2023-10-13T02:31:22;100353.84;;;17.37;100.00
14232;BME280;7200;52.194;9.900;2023-10-13T02:33:49;100352.88;;;17.38;100.00
14232;BME280;7200;52.194;9.900;2023-10-13T02:36:15;100345.09;;;17.35;100.00
14232;BME280;7200;52.194;9.900;2023-10-13T02:38:47;100346.72;;;17.38;100.00
14232;BME280;7200;52.194;9.900;2023-10-13T02:41:14;100330.91;;;17.35;100.00
14232;BME280;7200;52.194;9.900;2023-10-13T02:43:53;100332.31;;;17.40;100.00
14232;BME280;7200;52.194;9.900;2023-10-13T02:46:23;100338.84;;;17.49;100.00
14232;BME280;7200;52.194;9.900;2023-10-13T02:48:49;100334.88;;;17.42;100.00
14232;BME280;7200;52.194;9.900;2023-10-13T02:51:22;100332.31;;;17.40;100.00
14232;BME280;7200;52.194;9.900;2023-10-13T02:53:56;100320.50;;;17.44;100.00
14232;BME280;7200;52.194;9.900;2023-10-13T02:56:28;100322.75;;;17.50;100.00
14232;BME280;7200;52.194;9.900;2023-10-13T02:58:54;100323.41;;;17.54;100.00
14232;BME280;7200;52.194;9.900;2023-10-13T03:01:22;100306.19;;;17.45;100.00
14232;BME280;7200;52.194;9.900;2023-10-13T03:03:53;100306.03;;;17.61;100.00
14232;BME280;7200;52.194;9.900;2023-10-13T03:06:25;100304.94;;;17.64;100.00
14232;BME280;7200;52.194;9.900;2023-10-13T03:08:58;100289.66;;;17.53;100.00
14232;BME280;7200;52.194;9.900;2023-10-13T03:11:38;100278.06;;;17.67;100.00
14232;BME280;7200;52.194;9.900;2023-10-13T03:14:05;100269.06;;;17.55;100.00
14232;BME280;7200;52.194;9.900;2023-10-13T03:16:32;100256.28;;;17.60;100.00
14232;BME280;7200;52.194;9.900;2023-10-13T03:18:57;100244.75;;;17.60;100.00
14232;BME280;7200;52.194;9.900;2023-10-13T03:21:23;100240.72;;;17.54;100.00
14232;BME280;7200;52.194;9.900;2023-10-13T03:23:59;100241.47;;;17.69;100.00
14232;BME280;7200;52.194;9.900;2023-10-13T03:26:30;100229.28;;;17.65;100.00
14232;BME280;7200;52.194;9.900;2023-10-13T03:29:00;100218.84;;;17.75;100.00
14232;BME280;7200;52.194;9.900;2023-10-13T03:31:27;100218.41;;;17.68;100.00
14232;BME280;7200;52.194;9.900;2023-10-13T03:33:54;100209.22;;;17.72;100.00
14232;BME280;7200;52.194;9.900;2023-10-13T03:36:26;100208.03;;;17.76;100.00
14232;BME280;7200;52.194;9.900;2023-10-13T03:39:29;100200.16;;;17.75;100.00
14232;BME280;7200;52.194;9.900;2023-10-13T03:41:57;100197.59;;;17.73;100.00
14232;BME280;7200;52.194;9.900;2023-10-13T03:44:23;100183.81;;;17.66;100.00
14232;BME280;7200;52.194;9.900;2023-10-13T03:46:48;100178.81;;;17.62;100.00
14232;BME280;7200;52.194;9.900;2023-10-13T03:49:16;100173.59;;;17.60;100.00
14232;BME280;7200;52.194;9.900;2023-10-13T03:51:47;100164.53;;;17.50;100.00
14232;BME280;7200;52.194;9.900;2023-10-13T03:54:13;100151.50;;;17.45;100.00
14232;BME280;7200;52.194;9.900;2023-10-13T03:56:42;100146.50;;;17.41;100.00
14232;BME280;7200;52.194;9.900;2023-10-13T03:59:10;100148.19;;;17.42;100.00
14232;BME280;7200;52.194;9.900;2023-10-13T04:01:42;100138.81;;;17.36;100.00
14232;BME280;7200;52.194;9.900;2023-10-13T04:04:08;100139.03;;;17.33;100.00
14232;BME280;7200;52.194;9.900;2023-10-13T04:06:56;100132.50;;;17.24;100.00
14232;BME280;7200;52.194;9.900;2023-10-13T04:09:35;100124.50;;;17.24;100.00
14232;BME280;7200;52.194;9.900;2023-10-13T04:12:13;100127.09;;;17.26;100.00
14232;BME280;7200;52.194;9.900;2023-10-13T04:14:44;100119.28;;;17.23;100.00
14232;BME280;7200;52.194;9.900;2023-10-13T04:17:28;100123.66;;;17.24;100.00
14232;BME280;7200;52.194;9.900;2023-10-13T04:19:57;100128.34;;;17.20;100.00
14232;BME280;7200;52.194;9.900;2023-10-13T04:22:35;100126.09;;;17.27;100.00
14232;BME280;7200;52.194;9.900;2023-10-13T04:28:01;100101.50;;;17.10;100.00
14232;BME280;7200;52.194;9.900;2023-10-13T04:30:43;100102.00;;;17.16;100.00
14232;BME280;7200;52.194;9.900;2023-10-13T04:33:27;100100.94;;;17.05;100.00
14232;BME280;7200;52.194;9.900;2023-10-13T04:38:58;100087.28;;;17.10;100.00
14232;BME280;7200;52.194;9.900;2023-10-13T04:41:34;100089.22;;;17.08;100.00
14232;BME280;7200;52.194;9.900;2023-10-13T04:44:16;100081.53;;;17.03;100.00
14232;BME280;7200;52.194;9.900;2023-10-13T04:47:01;100077.06;;;17.04;100.00
14232;BME280;7200;52.194;9.900;2023-10-13T04:49:27;100049.44;;;16.39;100.00
14232;BME280;7200;52.194;9.900;2023-10-13T04:52:01;100079.59;;;16.92;100.00
14232;BME280;7200;52.194;9.900;2023-10-13T04:54:37;100087.16;;;16.99;100.00
14232;BME280;7200;52.194;9.900;2023-10-13T04:57:12;100083.97;;;17.06;100.00
14232;BME280;7200;52.194;9.900;2023-10-13T04:59:59;100080.25;;;16.96;100.00
14232;BME280;7200;52.194;9.900;2023-10-13T05:02:41;100089.75;;;17.00;100.00
14232;BME280;7200;52.194;9.900;2023-10-13T05:05:14;100090.38;;;17.04;100.00
14232;BME280;7200;52.194;9.900;2023-10-13T05:07:43;100086.53;;;17.08;100.00
14232;BME280;7200;52.194;9.900;2023-10-13T05:10:27;100088.16;;;17.10;100.00
14232;BME280;7200;52.194;9.900;2023-10-13T05:13:11;100081.66;;;17.15;100.00
14232;BME280;7200;52.194;9.900;2023-10-13T05:15:55;100078.34;;;17.11;100.00
14232;BME280;7200;52.194;9.900;2023-10-13T05:18:39;100069.50;;;17.10;100.00
14232;BME280;7200;52.194;9.900;2023-10-13T05:21:23;100066.72;;;17.12;100.00
14232;BME280;7200;52.194;9.900;2023-10-13T05:24:07;100060.97;;;17.05;100.00
14232;BME280;7200;52.194;9.900;2023-10-13T05:26:52;100060.31;;;17.02;100.00
14232;BME280;7200;52.194;9.900;2023-10-13T05:29:40;100068.75;;;17.08;100.00
14232;BME280;7200;52.194;9.900;2023-10-13T05:32:25;100067.59;;;17.12;100.00
14232;BME280;7200;52.194;9.900;2023-10-13T05:35:09;100070.25;;;17.12;100.00
14232;BME280;7200;52.194;9.900;2023-10-13T05:37:53;100066.72;;;16.99;100.00
14232;BME280;7200;52.194;9.900;2023-10-13T05:40:37;100071.81;;;17.02;100.00
14232;BME280;7200;52.194;9.900;2023-10-13T05:43:21;100069.16;;;17.15;100.00
14232;BME280;7200;52.194;9.900;2023-10-13T05:46:05;100065.75;;;17.13;100.00
14232;BME280;7200;52.194;9.900;2023-10-13T05:48:49;100073.00;;;17.24;100.00
14232;BME280;7200;52.194;9.900;2023-10-13T05:51:35;100071.09;;;17.26;100.00
14232;BME280;7200;52.194;9.900;2023-10-13T05:54:00;100066.72;;;17.25;100.00
14232;BME280;7200;52.194;9.900;2023-10-13T05:56:54;100066.16;;;17.32;100.00
14232;BME280;7200;52.194;9.900;2023-10-13T05:59:38;100061.81;;;17.31;100.00
14232;BME280;7200;52.194;9.900;2023-10-13T06:02:23;100061.72;;;17.33;100.00
14232;BME280;7200;52.194;9.900;2023-10-13T06:05:09;100058.06;;;17.34;100.00
14232;BME280;7200;52.194;9.900;2023-10-13T06:07:54;100062.44;;;17.48;100.00
14232;BME280;7200;52.194;9.900;2023-10-13T06:10:39;100071.50;;;17.45;100.00
14232;BME280;7200;52.194;9.900;2023-10-13T06:13:23;100065.94;;;17.48;100.00
14232;BME280;7200;52.194;9.900;2023-10-13T06:16:16;100061.00;;;17.55;100.00
14232;BME280;7200;52.194;9.900;2023-10-13T06:19:00;100066.44;;;17.54;100.00
14232;BME280;7200;52.194;9.900;2023-10-13T06:21:44;100064.63;;;17.67;100.00
14232;BME280;7200;52.194;9.900;2023-10-13T06:24:29;100067.41;;;17.65;100.00
14232;BME280;7200;52.194;9.900;2023-10-13T06:27:14;100068.47;;;17.63;100.00
14232;BME280;7200;52.194;9.900;2023-10-13T06:29:58;100058.66;;;17.63;100.00
14232;BME280;7200;52.194;9.900;2023-10-13T06:32:23;100052.69;;;17.60;100.00
14232;BME280;7200;52.194;9.900;2023-10-13T06:34:55;100060.44;;;17.76;100.00
14232;BME280;7200;52.194;9.900;2023-10-13T06:37:26;100069.41;;;17.75;100.00
14232;BME280;7200;52.194;9.900;2023-10-13T06:39:56;100066.50;;;17.78;100.00
14232;BME280;7200;52.194;9.900;2023-10-13T06:42:23;100059.69;;;17.86;100.00
14232;BME280;7200;52.194;9.900;2023-10-13T06:44:52;100052.44;;;17.88;100.00
14232;BME280;7200;52.194;9.900;2023-10-13T06:47:18;100053.38;;;17.87;100.00
14232;BME280;7200;52.194;9.900;2023-10-13T06:49:45;100040.47;;;17.81;100.00
14232;BME280;7200;52.194;9.900;2023-10-13T06:52:13;100058.78;;;17.99;100.00
14232;BME280;7200;52.194;9.900;2023-10-13T06:54:39;100057.03;;;18.11;100.00
14232;BME280;7200;52.194;9.900;2023-10-13T06:57:06;100043.19;;;18.05;100.00
14232;BME280;7200;52.194;9.900;2023-10-13T06:59:40;100047.72;;;18.16;100.00
14232;BME280;7200;52.194;9.900;2023-10-13T07:02:06;100042.56;;;18.26;100.00
14232;BME280;7200;52.194;9.900;2023-10-13T07:04:34;100030.34;;;18.35;100.00
14232;BME280;7200;52.194;9.900;2023-10-13T07:06:59;100028.41;;;18.37;100.00
14232;BME280;7200;52.194;9.900;2023-10-13T07:09:31;100019.81;;;18.44;100.00
14232;BME280;7200;52.194;9.900;2023-10-13T07:12:00;100017.34;;;18.41;100.00
14232;BME280;7200;52.194;9.900;2023-10-13T07:14:45;100012.00;;;18.41;100.00
14232;BME280;7200;52.194;9.900;2023-10-13T07:17:17;99995.38;;;18.38;100.00
14232;BME280;7200;52.194;9.900;2023-10-13T07:19:49;99989.41;;;18.34;100.00
14232;BME280;7200;52.194;9.900;2023-10-13T07:22:18;99988.56;;;18.34;100.00
14232;BME280;7200;52.194;9.900;2023-10-13T07:24:48;99988.44;;;18.35;100.00
14232;BME280;7200;52.194;9.900;2023-10-13T07:27:15;99973.19;;;18.13;100.00
14232;BME280;7200;52.194;9.900;2023-10-13T07:29:48;99978.34;;;18.27;100.00
14232;BME280;7200;52.194;9.900;2023-10-13T07:32:21;99988.56;;;18.34;100.00
14232;BME280;7200;52.194;9.900;2023-10-13T07:34:52;99989.16;;;18.26;100.00
14232;BME280;7200;52.194;9.900;2023-10-13T07:37:20;99983.22;;;18.34;100.00
14232;BME280;7200;52.194;9.900;2023-10-13T07:39:50;99979.75;;;18.44;100.00
14232;BME280;7200;52.194;9.900;2023-10-13T07:42:15;99978.75;;;18.45;100.00
14232;BME280;7200;52.194;9.900;2023-10-13T07:44:45;99979.47;;;18.47;100.00
14232;BME280;7200;52.194;9.900;2023-10-13T07:47:14;99965.25;;;18.36;100.00
14232;BME280;7200;52.194;9.900;2023-10-13T07:49:40;99960.94;;;18.46;100.00
14232;BME280;7200;52.194;9.900;2023-10-13T07:52:08;99953.03;;;18.44;100.00
14232;BME280;7200;52.194;9.900;2023-10-13T07:54:46;99942.34;;;18.56;100.00
14232;BME280;7200;52.194;9.900;2023-10-13T07:57:14;99932.38;;;18.35;100.00
14232;BME280;7200;52.194;9.900;2023-10-13T07:59:40;99935.66;;;18.39;100.00
14232;BME280;7200;52.194;9.900;2023-10-13T08:02:12;99936.75;;;18.47;100.00
14232;BME280;7200;52.194;9.900;2023-10-13T08:04:39;99938.47;;;18.48;100.00
14232;BME280;7200;52.194;9.900;2023-10-13T08:07:04;99953.88;;;18.56;100.00
14232;BME280;7200;52.194;9.900;2023-10-13T08:09:39;99934.81;;;18.61;100.00
14232;BME280;7200;52.194;9.900;2023-10-13T08:12:16;99931.69;;;18.56;100.00
14232;BME280;7200;52.194;9.900;2023-10-13T08:14:46;99936.06;;;18.79;100.00
14232;BME280;7200;52.194;9.900;2023-10-13T08:17:11;99935.47;;;18.87;100.00
14232;BME280;7200;52.194;9.900;2023-10-13T08:19:38;99920.91;;;18.91;100.00
14232;BME280;7200;52.194;9.900;2023-10-13T08:22:14;99917.63;;;18.99;100.00
14232;BME280;7200;52.194;9.900;2023-10-13T08:24:49;99925.66;;;19.10;100.00
14232;BME280;7200;52.194;9.900;2023-10-13T08:27:18;99908.28;;;19.04;100.00
14232;BME280;7200;52.194;9.900;2023-10-13T08:30:03;99913.84;;;19.01;100.00
14232;BME280;7200;52.194;9.900;2023-10-13T08:33:07;99913.34;;;19.19;100.00
14232;BME280;7200;52.194;9.900;2023-10-13T08:35:48;99897.06;;;19.11;100.00
14232;BME280;7200;52.194;9.900;2023-10-13T08:38:20;99886.16;;;19.14;100.00
14232;BME280;7200;52.194;9.900;2023-10-13T08:40:57;99889.03;;;19.22;100.00
14232;BME280;7200;52.194;9.900;2023-10-13T08:43:42;99885.97;;;19.26;100.00
14232;BME280;7200;52.194;9.900;2023-10-13T08:46:15;99879.78;;;19.26;100.00
14232;BME280;7200;52.194;9.900;2023-10-13T08:48:55;99867.03;;;19.18;100.00
14232;BME280;7200;52.194;9.900;2023-10-13T08:51:40;99858.59;;;19.34;100.00
14232;BME280;7200;52.194;9.900;2023-10-13T08:54:13;99840.97;;;19.32;100.00
14232;BME280;7200;52.194;9.900;2023-10-13T08:56:47;99834.72;;;19.54;100.00
14232;BME280;7200;52.194;9.900;2023-10-13T08:59:19;99833.47;;;19.58;100.00
14232;BME280;7200;52.194;9.900;2023-10-13T09:01:56;99816.03;;;19.42;100.00
14232;BME280;7200;52.194;9.900;2023-10-13T09:04:42;99821.53;;;19.62;100.00
14232;BME280;7200;52.194;9.900;2023-10-13T09:07:09;99820.03;;;19.69;100.00
14232;BME280;7200;52.194;9.900;2023-10-13T09:14:40;99801.66;;;19.76;100.00
14232;BME280;7200;52.194;9.900;2023-10-13T09:17:11;99802.09;;;20.02;100.00
14232;BME280;7200;52.194;9.900;2023-10-13T09:19:51;99795.09;;;20.11;100.00
14232;BME280;7200;52.194;9.900;2023-10-13T09:22:27;99779.03;;;20.11;100.00
14232;BME280;7200;52.194;9.900;2023-10-13T09:25:00;99761.69;;;20.05;100.00
14232;BME280;7200;52.194;9.900;2023-10-13T09:27:27;99762.47;;;20.27;100.00
14232;BME280;7200;52.194;9.900;2023-10-13T09:29:57;99742.03;;;20.26;100.00
14232;BME280;7200;52.194;9.900;2023-10-13T09:32:23;99726.88;;;20.46;100.00
14232;BME280;7200;52.194;9.900;2023-10-13T09:34:48;99713.50;;;20.46;100.00
14232;BME280;7200;52.194;9.900;2023-10-13T09:37:15;99701.41;;;20.61;100.00
14232;BME280;7200;52.194;9.900;2023-10-13T09:39:47;99685.47;;;20.69;100.00
14232;BME280;7200;52.194;9.900;2023-10-13T09:42:17;99678.84;;;20.83;100.00
14232;BME280;7200;52.194;9.900;2023-10-13T09:44:44;99663.91;;;20.71;100.00
14232;BME280;7200;52.194;9.900;2023-10-13T09:47:15;99656.16;;;20.97;100.00
14232;BME280;7200;52.194;9.900;2023-10-13T09:49:49;99630.59;;;20.73;100.00
14232;BME280;7200;52.194;9.900;2023-10-13T09:52:18;99618.91;;;20.84;100.00
14232;BME280;7200;52.194;9.900;2023-10-13T09:55:15;99616.19;;;20.94;100.00
14232;BME280;7200;52.194;9.900;2023-10-13T09:57:46;99600.50;;;21.09;100.00
14232;BME280;7200;52.194;9.900;2023-10-13T10:00:17;99588.09;;;21.08;100.00
14232;BME280;7200;52.194;9.900;2023-10-13T10:02:55;99584.06;;;21.41;100.00
14232;BME280;7200;52.194;9.900;2023-10-13T10:05:25;99567.66;;;21.54;100.00
14232;BME280;7200;52.194;9.900;2023-10-13T10:07:57;99554.97;;;21.46;100.00
14232;BME280;7200;52.194;9.900;2023-10-13T10:10:47;99549.59;;;21.46;100.00
14232;BME280;7200;52.194;9.900;2023-10-13T10:13:58;99538.81;;;21.56;100.00
14232;BME280;7200;52.194;9.900;2023-10-13T10:16:47;99502.03;;;21.38;100.00
14232;BME280;7200;52.194;9.900;2023-10-13T10:19:15;99497.31;;;21.50;100.00
14232;BME280;7200;52.194;9.900;2023-10-13T10:21:41;99486.09;;;21.65;100.00
14232;BME280;7200;52.194;9.900;2023-10-13T10:24:22;99471.31;;;21.78;100.00
14232;BME280;7200;52.194;9.900;2023-10-13T10:26:58;99463.03;;;21.72;100.00
14232;BME280;7200;52.194;9.900;2023-10-13T10:29:24;99435.78;;;21.85;100.00
14232;BME280;7200;52.194;9.900;2023-10-13T10:31:49;99434.97;;;22.02;100.00
14232;BME280;7200;52.194;9.900;2023-10-13T10:34:16;99426.81;;;21.94;100.00
14232;BME280;7200;52.194;9.900;2023-10-13T10:36:53;99422.19;;;22.22;100.00
14232;BME280;7200;52.194;9.900;2023-10-13T10:39:19;99412.22;;;22.14;100.00
14232;BME280;7200;52.194;9.900;2023-10-13T10:41:44;99396.16;;;22.41;100.00
14232;BME280;7200;52.194;9.900;2023-10-13T10:44:13;99392.00;;;22.02;100.00
14232;BME280;7200;52.194;9.900;2023-10-13T10:46:42;99376.63;;;22.30;100.00
14232;BME280;7200;52.194;9.900;2023-10-13T10:49:19;99389.88;;;22.14;100.00
14232;BME280;7200;52.194;9.900;2023-10-13T10:52:07;99374.09;;;22.29;100.00
14232;BME280;7200;52.194;9.900;2023-10-13T10:54:39;99372.03;;;22.05;100.00
14232;BME280;7200;52.194;9.900;2023-10-13T10:57:09;99371.63;;;22.17;100.00
14232;BME280;7200;52.194;9.900;2023-10-13T10:59:38;99371.53;;;22.09;100.00
14232;BME280;7200;52.194;9.900;2023-10-13T11:02:04;99371.59;;;22.35;100.00
14232;BME280;7200;52.194;9.900;2023-10-13T11:04:29;99349.63;;;22.22;100.00
14232;BME280;7200;52.194;9.900;2023-10-13T11:07:06;99353.38;;;22.47;100.00
14232;BME280;7200;52.194;9.900;2023-10-13T11:09:33;99339.88;;;22.39;100.00
14232;BME280;7200;52.194;9.900;2023-10-13T11:12:12;99339.16;;;22.63;100.00
14232;BME280;7200;52.194;9.900;2023-10-13T11:14:45;99326.03;;;22.60;100.00
14232;BME280;7200;52.194;9.900;2023-10-13T11:17:23;99319.44;;;22.46;100.00
14232;BME280;7200;52.194;9.900;2023-10-13T11:19:52;99334.88;;;22.44;100.00
14232;BME280;7200;52.194;9.900;2023-10-13T11:22:20;99315.13;;;22.09;100.00
14232;BME280;7200;52.194;9.900;2023-10-13T11:25:01;99333.81;;;22.37;100.00
14232;BME280;7200;52.194;9.900;2023-10-13T11:27:39;99330.19;;;22.46;100.00
14232;BME280;7200;52.194;9.900;2023-10-13T11:30:27;99335.81;;;22.35;100.00
14232;BME280;7200;52.194;9.900;2023-10-13T11:33:03;99326.84;;;22.52;100.00
14232;BME280;7200;52.194;9.900;2023-10-13T11:35:34;99330.91;;;22.57;100.00
14232;BME280;7200;52.194;9.900;2023-10-13T11:38:29;99318.44;;;22.47;100.00
14232;BME280;7200;52.194;9.900;2023-10-13T11:41:10;99322.34;;;22.53;100.00
14232;BME280;7200;52.194;9.900;2023-10-13T11:43:48;99317.00;;;22.69;100.00
14232;BME280;7200;52.194;9.900;2023-10-13T11:49:04;99322.06;;;22.64;100.00
14232;BME280;7200;52.194;9.900;2023-10-13T11:51:39;99309.91;;;22.60;100.00
14232;BME280;7200;52.194;9.900;2023-10-13T11:54:07;99307.00;;;22.88;100.00
14232;BME280;7200;52.194;9.900;2023-10-13T11:56:32;99297.59;;;22.92;100.00
14232;BME280;7200;52.194;9.900;2023-10-13T11:58:57;99288.94;;;23.15;100.00
14232;BME280;7200;52.194;9.900;2023-10-13T12:01:27;99292.00;;;23.20;100.00
14232;BME280;7200;52.194;9.900;2023-10-13T12:04:12;99284.50;;;22.46;100.00
14232;BME280;7200;52.194;9.900;2023-10-13T12:06:57;99288.91;;;22.98;100.00
14232;BME280;7200;52.194;9.900;2023-10-13T12:09:42;99281.06;;;23.29;100.00
14232;BME280;7200;52.194;9.900;2023-10-13T12:12:26;99293.34;;;23.24;100.00
14232;BME280;7200;52.194;9.900;2023-10-13T12:14:53;99296.75;;;23.42;100.00
14232;BME280;7200;52.194;9.900;2023-10-13T12:17:26;99302.63;;;23.54;100.00
14232;BME280;7200;52.194;9.900;2023-10-13T12:19:56;99301.63;;;23.55;100.00
14232;BME280;7200;52.194;9.900;2023-10-13T12:22:22;99290.69;;;23.48;100.00
14232;BME280;7200;52.194;9.900;2023-10-13T12:24:54;99296.22;;;23.30;100.00
14232;BME280;7200;52.194;9.900;2023-10-13T12:27:19;99294.72;;;23.36;100.00
14232;BME280;7200;52.194;9.900;2023-10-13T12:29:46;99289.81;;;23.31;100.00
14232;BME280;7200;52.194;9.900;2023-10-13T12:32:12;99287.34;;;23.55;100.00
14232;BME280;7200;52.194;9.900;2023-10-13T12:34:39;99287.47;;;23.45;100.00
14232;BME280;7200;52.194;9.900;2023-10-13T12:37:23;99291.19;;;23.52;100.00
14232;BME280;7200;52.194;9.900;2023-10-13T12:40:12;99290.34;;;23.60;100.00
14232;BME280;7200;52.194;9.900;2023-10-13T12:42:57;99285.47;;;23.55;100.00
14232;BME280;7200;52.194;9.900;2023-10-13T12:45:42;99275.88;;;23.61;100.00
14232;BME280;7200;52.194;9.900;2023-10-13T12:48:26;99288.34;;;23.45;100.00
14232;BME280;7200;52.194;9.900;2023-10-13T12:51:11;99279.66;;;23.01;100.00
14232;BME280;7200;52.194;9.900;2023-10-13T12:53:52;99282.09;;;23.28;100.00
14232;BME280;7200;52.194;9.900;2023-10-13T12:56:19;99277.22;;;23.40;100.00
14232;BME280;7200;52.194;9.900;2023-10-13T12:58:54;99292.34;;;23.25;100.00
14232;BME280;7200;52.194;9.900;2023-10-13T13:01:21;99284.13;;;23.35;100.00
14232;BME280;7200;52.194;9.900;2023-10-13T13:03:47;99278.53;;;23.11;100.00
14232;BME280;7200;52.194;9.900;2023-10-13T13:06:18;99273.66;;;23.31;100.00
14232;BME280;7200;52.194;9.900;2023-10-13T13:08:44;99267.78;;;23.20;100.00
14232;BME280;7200;52.194;9.900;2023-10-13T13:11:10;99270.81;;;23.25;100.00
14232;BME280;7200;52.194;9.900;2023-10-13T13:13:36;99270.16;;;23.31;100.00
14232;BME280;7200;52.194;9.900;2023-10-13T13:16:01;99273.50;;;23.41;100.00
14232;BME280;7200;52.194;9.900;2023-10-13T13:18:26;99265.63;;;23.48;100.00
14232;BME280;7200;52.194;9.900;2023-10-13T13:20:51;99264.28;;;23.44;100.00
14232;BME280;7200;52.194;9.900;2023-10-13T13:23:21;99250.28;;;23.24;100.00
14232;BME280;7200;52.194;9.900;2023-10-13T13:25:47;99241.31;;;22.99;100.00
14232;BME280;7200;52.194;9.900;2023-10-13T13:28:13;99264.91;;;23.13;100.00
14232;BME280;7200;52.194;9.900;2023-10-13T13:30:43;99252.81;;;23.25;100.00
14232;BME280;7200;52.194;9.900;2023-10-13T13:33:09;99245.09;;;23.30;100.00
14232;BME280;7200;52.194;9.900;2023-10-13T13:35:37;99250.13;;;23.58;100.00
14232;BME280;7200;52.194;9.900;2023-10-13T13:38:02;99253.84;;;23.57;100.00
14232;BME280;7200;52.194;9.900;2023-10-13T13:40:58;99222.72;;;23.46;100.00